Windhoek — 3FWJ3 — position and weather

sailwx.info

Track history (hours):
 
Tides and Currents Weather Stations Pressure Air Temp Water Temp Dewpoint Dewpoint Depression Visibility Wind Speed Wind Dir Waves Ship Positions

Windhoek

Last reported at 2017-Oct-21 12:05 UTC. Time now 2017-Oct-22 04:50 UTC.
Position N 37°30' W 009°44'.

Length 172 m; draft 7.6 m.

Type: Ship (hazmat cat C). MMSI: 370431000.

Date/timePositionNaut miles runAvg speedWind from/ knotsBaromVisibWave heightAir tempDewpointWater temp
2017-Oct-21 12:05N 37°30' W 009°44'214.0
2017-Oct-21 11:56N 37°32' W 009°45'4314.1
2017-Oct-21 08:54N 38°14' W 009°57'614.4
2017-Oct-21 08:30N 38°19' W 009°59'714.2
2017-Oct-21 08:00N 38°26' W 010°01'713.7
2017-Oct-21 07:30N 38°33' W 010°03'713.9
2017-Oct-21 07:00N 38°40' W 010°05'713.7
2017-Oct-21 06:30N 38°47' W 010°05'714.3
2017-Oct-21 06:00N 38°54' W 010°05'714.6
2017-Oct-21 05:30N 39°01' W 010°02'714.5
2017-Oct-21 05:00N 39°07' W 009°58'815.0
2017-Oct-21 04:30N 39°14' W 009°53'714.4
2017-Oct-21 04:00N 39°20' W 009°49'714.5
2017-Oct-21 03:30N 39°27' W 009°45'814.5
2017-Oct-21 02:57N 39°34' W 009°41'9613.7
2017-Oct-20 19:59N 41°01' W 008°49'612.8
2017-Oct-20 19:31N 41°07' W 008°45'5 9.1
2017-Oct-20 19:00N 41°11' W 008°42'1 2.8
2017-Oct-20 18:29N 41°12' W 008°41'0 0.0
2017-Oct-20 17:59N 41°12' W 008°41'0 0.0
2017-Oct-20 17:29N 41°12' W 008°41'0 0.0
2017-Oct-20 16:56N 41°12' W 008°41'0 0.0
2017-Oct-20 16:29N 41°12' W 008°41'0 0.0
2017-Oct-20 15:59N 41°12' W 008°41'0 0.0
2017-Oct-20 15:29N 41°12' W 008°41'0 0.0
2017-Oct-20 14:59N 41°12' W 008°41'0 0.0
2017-Oct-20 14:29N 41°12' W 008°41'0 0.0
2017-Oct-20 13:29N 41°12' W 008°41'0 0.0
2017-Oct-20 12:59N 41°12' W 008°41'0 0.0
2017-Oct-20 12:29N 41°12' W 008°41'0 0.0
2017-Oct-20 11:53N 41°12' W 008°41'0 0.0
2017-Oct-20 11:29N 41°12' W 008°41'0 0.0
2017-Oct-20 10:56N 41°12' W 008°41'0 0.0
2017-Oct-20 10:29N 41°12' W 008°41'0 0.0
2017-Oct-20 09:59N 41°12' W 008°41'0 0.0
2017-Oct-20 09:29N 41°12' W 008°41'0 0.0
2017-Oct-20 08:59N 41°12' W 008°41'0 0.0
2017-Oct-20 08:29N 41°12' W 008°41'0 0.0
2017-Oct-20 07:59N 41°12' W 008°41'0 0.0
2017-Oct-20 07:29N 41°12' W 008°41'0 0.0
2017-Oct-20 06:59N 41°12' W 008°41'0 0.0
2017-Oct-20 06:29N 41°12' W 008°41'0 0.0
2017-Oct-20 05:59N 41°12' W 008°41'0 0.0
2017-Oct-20 05:29N 41°12' W 008°41'0 0.0
2017-Oct-20 04:59N 41°12' W 008°41'0 0.0
2017-Oct-20 04:29N 41°12' W 008°41'0 0.0
2017-Oct-20 03:59N 41°12' W 008°41'0 0.0
2017-Oct-20 03:29N 41°12' W 008°41'0 0.0
2017-Oct-20 02:56N 41°12' W 008°41'0 0.0
2017-Oct-20 02:29N 41°12' W 008°41'0 0.0
2017-Oct-20 01:59N 41°12' W 008°41'0 0.0
2017-Oct-20 01:29N 41°12' W 008°41'0 0.0
2017-Oct-20 00:59N 41°12' W 008°41'0 0.0
2017-Oct-20 00:29N 41°12' W 008°41'0 0.0
2017-Oct-19 23:59N 41°12' W 008°41'0 0.0
2017-Oct-19 23:29N 41°12' W 008°41'0 0.0
2017-Oct-19 22:59N 41°12' W 008°41'0 0.1
2017-Oct-19 22:29N 41°12' W 008°41'0 0.0
2017-Oct-19 21:59N 41°12' W 008°41'0 0.0
2017-Oct-19 21:23N 41°12' W 008°41'0 0.0
2017-Oct-19 20:59N 41°12' W 008°41'0 0.0
2017-Oct-19 20:29N 41°12' W 008°41'0 0.0
2017-Oct-19 19:59N 41°12' W 008°41'0 0.0
2017-Oct-19 19:26N 41°12' W 008°41'0 0.0
2017-Oct-19 18:59N 41°12' W 008°41'0 0.0
2017-Oct-19 18:29N 41°12' W 008°41'0 0.0
2017-Oct-19 17:59N 41°12' W 008°41'0 0.0
2017-Oct-19 17:29N 41°12' W 008°41'0 0.0
2017-Oct-19 16:59N 41°12' W 008°41'0 0.0
2017-Oct-19 16:29N 41°12' W 008°41'0 0.0
2017-Oct-19 15:59N 41°12' W 008°41'0 0.7
2017-Oct-19 15:30N 41°11' W 008°41'2 4.5
2017-Oct-19 15:00N 41°09' W 008°42'1 2.4
2017-Oct-19 14:30N 41°09' W 008°44'2 4.3
2017-Oct-19 14:00N 41°08' W 008°46'1 2.0
2017-Oct-19 13:30N 41°07' W 008°48'1 1.5
2017-Oct-19 13:00N 41°07' W 008°48'5 5.6
2017-Oct-19 12:06N 41°02' W 008°49'1 6.2
2017-Oct-19 11:54N 41°01' W 008°50'2 6.2
2017-Oct-19 11:30N 40°58' W 008°51'9612.7
2017-Oct-19 04:00N 39°31' W 009°42'613.2
2017-Oct-19 03:30N 39°25' W 009°46'613.0
2017-Oct-19 03:00N 39°19' W 009°50'612.7
2017-Oct-19 02:30N 39°13' W 009°51'713.1
2017-Oct-19 02:01N 39°07' W 009°52'713.3
2017-Oct-19 01:30N 38°60' W 009°52'713.0
2017-Oct-19 01:00N 38°53' W 009°51'713.6
2017-Oct-19 00:30N 38°47' W 009°51'713.3
2017-Oct-19 00:01N 38°40' W 009°49'612.1
2017-Oct-18 23:31N 38°38' W 009°42'713.0
2017-Oct-18 23:00N 38°37' W 009°34'612.9
2017-Oct-18 22:30N 38°36' W 009°26'612.9
2017-Oct-18 22:00N 38°40' W 009°19'5 9.3
2017-Oct-18 21:30N 38°41' W 009°13'510.0
2017-Oct-18 21:00N 38°42' W 009°07'1 1.3
2017-Oct-18 20:29N 38°43' W 009°07'0 0.0
2017-Oct-18 19:56N 38°43' W 009°07'0 0.0
2017-Oct-18 19:26N 38°43' W 009°07'0 0.0
2017-Oct-18 18:56N 38°43' W 009°07'0 0.0
2017-Oct-18 18:26N 38°43' W 009°07'0 0.0
2017-Oct-18 17:56N 38°43' W 009°07'0 0.0
2017-Oct-18 17:26N 38°43' W 009°07'0 0.0
2017-Oct-18 16:56N 38°43' W 009°07'0 0.0
2017-Oct-18 16:26N 38°43' W 009°07'0 0.0
2017-Oct-18 15:56N 38°43' W 009°07'0 0.0
2017-Oct-18 15:23N 38°43' W 009°07'0 0.0
2017-Oct-18 14:56N 38°43' W 009°07'0 0.0
2017-Oct-18 13:56N 38°43' W 009°07'0 0.0
2017-Oct-18 13:29N 38°43' W 009°07'0 0.0
2017-Oct-18 12:59N 38°43' W 009°07'0 0.0
2017-Oct-18 12:26N 38°43' W 009°07'0 0.0
2017-Oct-18 11:56N 38°43' W 009°07'0 0.0
2017-Oct-18 11:29N 38°43' W 009°07'0 0.0
2017-Oct-18 10:59N 38°43' W 009°07'0 0.0
2017-Oct-18 10:26N 38°43' W 009°07'0 0.0
2017-Oct-18 09:56N 38°43' W 009°07'0 0.0
2017-Oct-18 09:29N 38°43' W 009°07'0 0.0
2017-Oct-18 08:56N 38°43' W 009°07'0 0.0
2017-Oct-18 08:29N 38°43' W 009°07'0 0.0
2017-Oct-18 07:47N 38°43' W 009°07'0 0.0
2017-Oct-18 07:26N 38°43' W 009°07'0 0.0
2017-Oct-18 06:59N 38°43' W 009°07'0 0.0
2017-Oct-18 06:29N 38°43' W 009°07'0 0.0
2017-Oct-18 05:59N 38°43' W 009°07'0 0.0
2017-Oct-18 05:29N 38°43' W 009°07'0 0.0
2017-Oct-18 04:59N 38°43' W 009°07'0 0.0
2017-Oct-18 04:26N 38°43' W 009°07'0 0.0
2017-Oct-18 03:59N 38°43' W 009°07'0 0.0
2017-Oct-18 03:29N 38°43' W 009°07'0 0.0
2017-Oct-18 02:59N 38°43' W 009°07'0 0.0
2017-Oct-18 02:29N 38°43' W 009°07'0 0.0
2017-Oct-18 01:59N 38°43' W 009°07'0 0.0
2017-Oct-18 01:29N 38°43' W 009°07'0 0.0
2017-Oct-18 00:59N 38°43' W 009°07'0 0.0
2017-Oct-18 00:29N 38°43' W 009°07'0 0.0
2017-Oct-17 23:56N 38°43' W 009°07'0 0.0
2017-Oct-17 23:29N 38°43' W 009°07'0 0.0
2017-Oct-17 22:59N 38°43' W 009°07'0 0.0
2017-Oct-17 22:29N 38°43' W 009°07'0 0.0
2017-Oct-17 21:59N 38°43' W 009°07'0 0.0
2017-Oct-17 21:26N 38°43' W 009°07'0 0.0
2017-Oct-17 20:59N 38°43' W 009°07'0 0.0
2017-Oct-17 20:29N 38°43' W 009°07'0 0.0
2017-Oct-17 19:59N 38°43' W 009°07'0 0.0
2017-Oct-17 19:29N 38°43' W 009°07'0 0.0
2017-Oct-17 18:56N 38°43' W 009°07'0 0.0
2017-Oct-17 18:29N 38°43' W 009°07'0 0.0
2017-Oct-17 17:59N 38°43' W 009°07'0 0.0
2017-Oct-17 17:29N 38°43' W 009°07'0 0.0
2017-Oct-17 16:59N 38°43' W 009°07'0 0.0
2017-Oct-17 16:29N 38°43' W 009°07'0 0.0
2017-Oct-17 15:56N 38°43' W 009°07'0 0.0
2017-Oct-17 15:29N 38°43' W 009°07'0 0.0
2017-Oct-17 14:59N 38°43' W 009°07'0 0.0
2017-Oct-17 14:29N 38°43' W 009°07'0 0.0
2017-Oct-17 13:53N 38°43' W 009°07'0 0.0
2017-Oct-17 13:29N 38°43' W 009°07'0 0.0
2017-Oct-17 12:59N 38°43' W 009°07'0 0.0
2017-Oct-17 12:23N 38°43' W 009°07'0 0.0
2017-Oct-17 11:59N 38°43' W 009°07'0 0.0
2017-Oct-17 11:29N 38°43' W 009°07'0 0.0
2017-Oct-17 10:59N 38°43' W 009°07'0 0.0
2017-Oct-17 10:26N 38°43' W 009°07'0 0.0
2017-Oct-17 09:59N 38°43' W 009°07'0 0.0
2017-Oct-17 09:26N 38°43' W 009°07'0 0.0
2017-Oct-17 08:59N 38°43' W 009°07'0 0.0
2017-Oct-17 08:29N 38°43' W 009°07'0 0.0
2017-Oct-17 07:59N 38°43' W 009°07'0 0.0
2017-Oct-17 07:29N 38°43' W 009°07'0 0.0
2017-Oct-17 06:59N 38°43' W 009°07'0 0.0
2017-Oct-17 06:26N 38°43' W 009°07'0 0.0
2017-Oct-17 05:59N 38°43' W 009°07'0 0.0
2017-Oct-17 05:26N 38°43' W 009°07'0 0.0
2017-Oct-17 04:59N 38°43' W 009°07'0 0.0
2017-Oct-17 04:29N 38°43' W 009°07'0 0.0
2017-Oct-17 03:56N 38°43' W 009°07'0 0.0
2017-Oct-17 03:14N 38°43' W 009°07'0 0.0
2017-Oct-17 02:59N 38°43' W 009°07'0 0.0
2017-Oct-17 02:29N 38°43' W 009°07'0 0.0
2017-Oct-17 01:59N 38°43' W 009°07'0 0.0
2017-Oct-17 01:26N 38°43' W 009°07'0 0.0
2017-Oct-17 00:59N 38°43' W 009°07'0 0.0
2017-Oct-17 00:29N 38°43' W 009°07'0 0.0
2017-Oct-16 23:59N 38°43' W 009°07'0 0.0
2017-Oct-16 23:29N 38°43' W 009°07'0 0.0
2017-Oct-16 22:59N 38°43' W 009°07'0 0.0
2017-Oct-16 22:29N 38°43' W 009°07'0 0.0
2017-Oct-16 21:56N 38°43' W 009°07'0 0.0
2017-Oct-16 21:29N 38°43' W 009°07'0 0.0
2017-Oct-16 20:53N 38°43' W 009°07'0 0.0
2017-Oct-16 20:11N 38°43' W 009°07'0 0.1
2017-Oct-16 19:59N 38°43' W 009°07'0 0.7
2017-Oct-16 19:31N 38°43' W 009°07'1 1.4
2017-Oct-16 19:00N 38°42' W 009°07'0 0.1
2017-Oct-16 18:31N 38°42' W 009°07'0 0.0
2017-Oct-16 18:01N 38°42' W 009°07'0 0.0
2017-Oct-16 17:30N 38°42' W 009°07'0 0.0
2017-Oct-16 17:00N 38°42' W 009°07'0 0.0
2017-Oct-16 16:27N 38°42' W 009°07'0 0.0
2017-Oct-16 16:01N 38°42' W 009°07'0 0.0
2017-Oct-16 15:30N 38°42' W 009°07'0 0.0
2017-Oct-16 15:00N 38°42' W 009°07'0 0.4
2017-Oct-16 14:27N 38°42' W 009°07'0 0.1
2017-Oct-16 13:25N 38°42' W 009°07'0 0.0
2017-Oct-16 13:01N 38°42' W 009°07'0 0.0
2017-Oct-16 12:30N 38°42' W 009°07'0 0.0
2017-Oct-16 11:55N 38°42' W 009°07'0 0.0
2017-Oct-16 11:30N 38°42' W 009°07'0 0.0
2017-Oct-16 10:49N 38°42' W 009°07'0 0.0
2017-Oct-16 10:31N 38°42' W 009°07'0 0.0
2017-Oct-16 10:00N 38°42' W 009°07'0 0.0
2017-Oct-16 09:27N 38°42' W 009°07'0 0.1
2017-Oct-16 08:58N 38°42' W 009°07'0 0.0
2017-Oct-16 08:24N 38°42' W 009°07'0 0.1
2017-Oct-16 07:54N 38°42' W 009°07'0 0.1
2017-Oct-16 07:28N 38°42' W 009°07'0 0.1
2017-Oct-16 07:01N 38°42' W 009°07'0 0.1
2017-Oct-16 06:30N 38°42' W 009°07'0 0.1
2017-Oct-16 05:57N 38°42' W 009°07'0 0.0
2017-Oct-16 05:30N 38°42' W 009°07'0 0.0
2017-Oct-16 05:01N 38°42' W 009°07'0 0.0
2017-Oct-16 04:31N 38°42' W 009°07'0 0.0
2017-Oct-16 04:00N 38°42' W 009°07'0 0.0
2017-Oct-16 03:31N 38°42' W 009°07'0 0.0
2017-Oct-16 03:01N 38°42' W 009°07'0 0.0
2017-Oct-16 02:30N 38°42' W 009°07'0 0.3
2017-Oct-16 02:00N 38°42' W 009°07'0 0.1
2017-Oct-16 01:30N 38°42' W 009°07'0 0.0
2017-Oct-16 00:58N 38°42' W 009°07'0 0.0
2017-Oct-16 00:30N 38°42' W 009°07'0 0.0
2017-Oct-15 23:57N 38°42' W 009°07'0 1.0
2017-Oct-15 23:30N 38°43' W 009°07'0 0.8
2017-Oct-15 22:58N 38°43' W 009°07'0 0.0
2017-Oct-15 22:31N 38°43' W 009°07'0 0.0
2017-Oct-15 21:58N 38°43' W 009°07'0 0.0
2017-Oct-15 21:25N 38°43' W 009°07'0 0.0
2017-Oct-15 20:58N 38°43' W 009°07'0 0.0
2017-Oct-15 20:28N 38°43' W 009°07'0 0.0
2017-Oct-15 20:01N 38°43' W 009°07'0 0.0
2017-Oct-15 19:28N 38°43' W 009°07'0 0.0
2017-Oct-15 19:01N 38°43' W 009°07'0 0.0
2017-Oct-15 18:28N 38°43' W 009°07'0 0.0
2017-Oct-15 18:01N 38°43' W 009°07'0 0.0
2017-Oct-15 17:28N 38°43' W 009°07'0 0.0
2017-Oct-15 16:58N 38°43' W 009°07'0 0.0
2017-Oct-15 16:28N 38°43' W 009°07'0 0.0
2017-Oct-15 15:58N 38°43' W 009°07'0 0.0
2017-Oct-15 15:28N 38°43' W 009°07'0 0.0
2017-Oct-15 14:58N 38°43' W 009°07'0 0.0
2017-Oct-15 13:58N 38°43' W 009°07'0 0.0
2017-Oct-15 13:31N 38°43' W 009°07'0 0.0
2017-Oct-15 12:58N 38°43' W 009°07'0 0.0
2017-Oct-15 12:31N 38°43' W 009°07'0 0.0
2017-Oct-15 12:01N 38°43' W 009°07'0 0.0
2017-Oct-15 11:28N 38°43' W 009°07'0 0.0
2017-Oct-15 10:58N 38°43' W 009°07'0 0.0
2017-Oct-15 10:22N 38°43' W 009°07'0 0.0
2017-Oct-15 09:58N 38°43' W 009°07'0 0.0
2017-Oct-15 09:28N 38°43' W 009°07'0 0.0
2017-Oct-15 08:55N 38°43' W 009°07'0 0.0
2017-Oct-15 08:28N 38°43' W 009°07'0 0.0
2017-Oct-15 07:57N 38°43' W 009°07'0 0.0
2017-Oct-15 07:28N 38°43' W 009°07'0 0.0
2017-Oct-15 06:58N 38°43' W 009°07'0 0.0
2017-Oct-15 06:28N 38°43' W 009°07'0 0.0
2017-Oct-15 05:55N 38°43' W 009°07'0 0.0
2017-Oct-15 05:31N 38°43' W 009°07'0 0.0
2017-Oct-15 04:58N 38°43' W 009°07'0 0.0
2017-Oct-15 04:30N 38°43' W 009°07'0 0.0
2017-Oct-15 03:58N 38°43' W 009°07'0 0.0
2017-Oct-15 03:30N 38°43' W 009°07'0 0.0
2017-Oct-15 03:00N 38°43' W 009°07'0 0.0
2017-Oct-15 02:28N 38°43' W 009°07'0 0.0
2017-Oct-15 01:58N 38°43' W 009°07'0 0.0
2017-Oct-15 01:28N 38°43' W 009°07'0 0.0
2017-Oct-15 01:01N 38°43' W 009°07'0 0.0
2017-Oct-15 00:25N 38°43' W 009°07'0 0.0
2017-Oct-14 23:58N 38°43' W 009°07'0 0.0
2017-Oct-14 23:31N 38°43' W 009°07'0 0.0
2017-Oct-14 22:58N 38°43' W 009°07'0 0.0
2017-Oct-14 22:25N 38°43' W 009°07'0 0.0
2017-Oct-14 21:58N 38°43' W 009°07'0 0.0
2017-Oct-14 21:27N 38°43' W 009°07'0 0.0
2017-Oct-14 20:58N 38°43' W 009°07'0 0.0
2017-Oct-14 20:28N 38°43' W 009°07'0 0.0
2017-Oct-14 19:58N 38°43' W 009°07'0 0.0
2017-Oct-14 19:28N 38°43' W 009°07'0 0.0
2017-Oct-14 19:01N 38°43' W 009°07'0 0.0
2017-Oct-14 18:28N 38°43' W 009°07'0 0.0
2017-Oct-14 18:01N 38°43' W 009°07'0 0.0
2017-Oct-14 17:31N 38°43' W 009°07'0 0.0
2017-Oct-14 17:01N 38°43' W 009°07'0 0.0
2017-Oct-14 16:25N 38°43' W 009°07'0 0.0
2017-Oct-14 15:52N 38°43' W 009°07'0 0.0
2017-Oct-14 15:28N 38°43' W 009°07'0 0.0
2017-Oct-14 15:01N 38°43' W 009°07'0 0.0
2017-Oct-14 14:28N 38°43' W 009°07'0 0.0
2017-Oct-14 13:58N 38°43' W 009°07'0 0.9
2017-Oct-14 13:30N 38°43' W 009°07'4 8.9
2017-Oct-14 13:00N 38°41' W 009°12'3 6.3
2017-Oct-14 12:30N 38°41' W 009°16'4 7.3
2017-Oct-14 12:00N 38°39' W 009°20'611.1
2017-Oct-14 11:30N 38°35' W 009°26'612.1
2017-Oct-14 11:00N 38°31' W 009°31'2 3.6
2017-Oct-14 10:28N 38°30' W 009°33'0 0.8
2017-Oct-14 09:58N 38°30' W 009°33'0 0.7
2017-Oct-14 09:28N 38°30' W 009°32'0 0.8
2017-Oct-14 08:58N 38°30' W 009°32'0 0.7
2017-Oct-14 08:28N 38°30' W 009°31'0 0.3
2017-Oct-14 07:58N 38°30' W 009°31'0 0.3
2017-Oct-14 07:28N 38°30' W 009°31'0 0.5
2017-Oct-14 06:58N 38°30' W 009°31'0 0.8
2017-Oct-14 06:28N 38°30' W 009°30'0 0.9
2017-Oct-14 05:58N 38°30' W 009°30'1 1.0
2017-Oct-14 05:28N 38°30' W 009°29'0 1.0
2017-Oct-14 04:58N 38°30' W 009°28'1 1.2
2017-Oct-14 04:28N 38°30' W 009°28'1 1.8
2017-Oct-14 04:00N 38°30' W 009°27'5 9.8
2017-Oct-14 03:30N 38°25' W 009°28'612.0
2017-Oct-14 03:00N 38°19' W 009°29'713.5
2017-Oct-14 02:31N 38°12' W 009°31'713.5
2017-Oct-14 02:00N 38°06' W 009°33'713.6
2017-Oct-14 01:30N 37°59' W 009°34'713.7
2017-Oct-14 01:00N 37°52' W 009°36'714.1
2017-Oct-14 00:30N 37°45' W 009°38'714.0
2017-Oct-14 00:00N 37°38' W 009°39'713.8
2017-Oct-13 23:30N 37°32' W 009°41'713.8
2017-Oct-13 23:00N 37°25' W 009°43'713.7
2017-Oct-13 22:30N 37°18' W 009°45'713.6
2017-Oct-13 22:01N 37°12' W 009°46'713.8
2017-Oct-13 21:30N 37°05' W 009°49'713.7
2017-Oct-13 21:00N 36°58' W 009°51'713.4
2017-Oct-13 20:30N 36°52' W 009°53'713.3
2017-Oct-13 20:00N 36°45' W 009°54'713.4
2017-Oct-13 19:30N 36°39' W 009°56'713.4
2017-Oct-13 19:00N 36°32' W 009°57'713.3
2017-Oct-13 18:30N 36°25' W 009°59'713.3
2017-Oct-13 18:00N 36°19' W 010°01'713.4
2017-Oct-13 17:30N 36°12' W 010°02'713.5
2017-Oct-13 17:00N 36°06' W 010°04'713.5
2017-Oct-13 16:30N 35°59' W 010°06'713.8
2017-Oct-13 16:00N 35°53' W 010°08'713.7
2017-Oct-13 15:29N 35°46' W 010°10'3113.7
2017-Oct-13 13:15N 35°15' W 010°17'313.9
2017-Oct-13 13:00N 35°12' W 010°18'713.8
2017-Oct-13 12:30N 35°05' W 010°20'713.7
2017-Oct-13 12:00N 34°59' W 010°22'713.7
2017-Oct-13 11:30N 34°52' W 010°23'713.8
2017-Oct-13 11:00N 34°45' W 010°25'714.2
2017-Oct-13 10:30N 34°38' W 010°27'714.0
2017-Oct-13 10:00N 34°31' W 010°29'713.8
2017-Oct-13 09:30N 34°25' W 010°30'713.9
2017-Oct-13 09:00N 34°18' W 010°32'713.8
2017-Oct-13 08:30N 34°11' W 010°34'913.7
2017-Oct-13 07:51N 34°02' W 010°36'713.9
2017-Oct-13 07:20N 33°55' W 010°38'514.1
2017-Oct-13 07:00N 33°51' W 010°39'714.1
2017-Oct-13 06:29N 33°44' W 010°41'1014.7
2017-Oct-13 05:49N 33°34' W 010°43'414.4
2017-Oct-13 05:30N 33°30' W 010°44'1114.3
2017-Oct-13 04:46N 33°19' W 010°47'414.4
2017-Oct-13 04:30N 33°15' W 010°48'714.7
2017-Oct-13 04:00N 33°08' W 010°49'814.6
2017-Oct-13 03:27N 33°01' W 010°51'2614.8
2017-Oct-13 01:43N 32°35' W 010°58'3014.8
2017-Oct-12 23:42N 32°06' W 011°05'514.6
2017-Oct-12 23:21N 32°01' W 011°06'515.1
2017-Oct-12 22:59N 31°56' W 011°07'714.6
2017-Oct-12 22:30N 31°49' W 011°09'714.5
2017-Oct-12 22:00N 31°42' W 011°11'714.6
2017-Oct-12 21:30N 31°35' W 011°13'814.5
2017-Oct-12 20:58N 31°27' W 011°15'3913.5
2017-Oct-12 18:06N 30°51' W 011°31'214.2
2017-Oct-12 17:59N 30°50' W 011°32'714.0
2017-Oct-12 17:29N 30°44' W 011°37'713.9
2017-Oct-12 16:59N 30°38' W 011°41'1415.5
2017-Oct-12 16:04N 30°26' W 011°50'119.1
2017-Oct-12 15:59N 30°24' W 011°51'1118.4
2017-Oct-12 15:23N 30°15' W 011°57'614.7
2017-Oct-12 15:00N 30°10' W 012°01'1013.9
2017-Oct-12 14:18N 30°02' W 012°07'413.6
2017-Oct-12 14:00N 29°59' W 012°10'713.7
2017-Oct-12 13:30N 29°53' W 012°14'713.7
2017-Oct-12 13:00N 29°47' W 012°18'713.8
2017-Oct-12 12:31N 29°41' W 012°22'1713.9
2017-Oct-12 11:17N 29°27' W 012°33'413.8
2017-Oct-12 11:00N 29°24' W 012°36'713.7
2017-Oct-12 10:30N 29°18' W 012°40'713.9
2017-Oct-12 10:01N 29°13' W 012°45'714.1
2017-Oct-12 09:30N 29°07' W 012°50'713.2
2017-Oct-12 09:00N 29°01' W 012°52'713.6
2017-Oct-12 08:30N 28°55' W 012°56'714.3
2017-Oct-12 08:00N 28°49' W 013°01'713.7
2017-Oct-12 07:30N 28°43' W 013°05'714.3
2017-Oct-12 07:00N 28°37' W 013°09'714.3
2017-Oct-12 06:31N 28°31' W 013°14'714.3
2017-Oct-12 06:00N 28°25' W 013°18'714.6
2017-Oct-12 05:30N 28°19' W 013°22'714.6
2017-Oct-12 05:00N 28°13' W 013°27'714.4
2017-Oct-12 04:30N 28°07' W 013°31'714.2
2017-Oct-12 04:01N 28°01' W 013°36'713.9
2017-Oct-12 03:30N 27°55' W 013°40'713.7
2017-Oct-12 03:00N 27°49' W 013°44'713.8
2017-Oct-12 02:31N 27°43' W 013°48'713.6
2017-Oct-12 02:00N 27°38' W 013°52'713.7
2017-Oct-12 01:30N 27°32' W 013°56'713.8
2017-Oct-12 01:00N 27°26' W 014°01'713.8
2017-Oct-12 00:30N 27°20' W 014°05'713.6
2017-Oct-12 00:00N 27°14' W 014°09'1513.5
2017-Oct-11 22:53N 27°02' W 014°18'2013.4
2017-Oct-11 21:24N 26°45' W 014°30'2113.3
2017-Oct-11 19:50N 26°28' W 014°43'512.6
2017-Oct-11 19:27N 26°23' W 014°45'613.0
2017-Oct-11 18:59N 26°18' W 014°49'713.0
2017-Oct-11 18:29N 26°13' W 014°53'612.8
2017-Oct-11 18:00N 26°08' W 014°56'712.7
2017-Oct-11 17:29N 26°02' W 015°01'812.6
2017-Oct-11 16:51N 25°55' W 015°05'  
Track history (hours):
 
Tides and Currents Weather Stations Pressure Air Temp Water Temp Dewpoint Dewpoint Depression Visibility Wind Speed Wind Dir Waves Ship Positions

Windhoek

Last reported at 2017-Oct-21 12:05 UTC. Time now 2017-Oct-22 04:50 UTC.
Position N 37°30' W 009°44'.

Length 172 m; draft 7.6 m.

Type: Ship (hazmat cat C). MMSI: 370431000.

Date/timePositionNaut miles runAvg speedWind from/ knotsBaromVisibWave heightAir tempDewpointWater temp
2017-Oct-21 12:05N 37°30' W 009°44'214.0
2017-Oct-21 11:56N 37°32' W 009°45'4314.1
2017-Oct-21 08:54N 38°14' W 009°57'614.4
2017-Oct-21 08:30N 38°19' W 009°59'714.2
2017-Oct-21 08:00N 38°26' W 010°01'713.7
2017-Oct-21 07:30N 38°33' W 010°03'713.9
2017-Oct-21 07:00N 38°40' W 010°05'713.7
2017-Oct-21 06:30N 38°47' W 010°05'714.3
2017-Oct-21 06:00N 38°54' W 010°05'714.6
2017-Oct-21 05:30N 39°01' W 010°02'714.5
2017-Oct-21 05:00N 39°07' W 009°58'815.0
2017-Oct-21 04:30N 39°14' W 009°53'714.4
2017-Oct-21 04:00N 39°20' W 009°49'714.5
2017-Oct-21 03:30N 39°27' W 009°45'814.5
2017-Oct-21 02:57N 39°34' W 009°41'9613.7
2017-Oct-20 19:59N 41°01' W 008°49'612.8
2017-Oct-20 19:31N 41°07' W 008°45'5 9.1
2017-Oct-20 19:00N 41°11' W 008°42'1 2.8
2017-Oct-20 18:29N 41°12' W 008°41'0 0.0
2017-Oct-20 17:59N 41°12' W 008°41'0 0.0
2017-Oct-20 17:29N 41°12' W 008°41'0 0.0
2017-Oct-20 16:56N 41°12' W 008°41'0 0.0
2017-Oct-20 16:29N 41°12' W 008°41'0 0.0
2017-Oct-20 15:59N 41°12' W 008°41'0 0.0
2017-Oct-20 15:29N 41°12' W 008°41'0 0.0
2017-Oct-20 14:59N 41°12' W 008°41'0 0.0
2017-Oct-20 14:29N 41°12' W 008°41'0 0.0
2017-Oct-20 13:29N 41°12' W 008°41'0 0.0
2017-Oct-20 12:59N 41°12' W 008°41'0 0.0
2017-Oct-20 12:29N 41°12' W 008°41'0 0.0
2017-Oct-20 11:53N 41°12' W 008°41'0 0.0
2017-Oct-20 11:29N 41°12' W 008°41'0 0.0
2017-Oct-20 10:56N 41°12' W 008°41'0 0.0
2017-Oct-20 10:29N 41°12' W 008°41'0 0.0
2017-Oct-20 09:59N 41°12' W 008°41'0 0.0
2017-Oct-20 09:29N 41°12' W 008°41'0 0.0
2017-Oct-20 08:59N 41°12' W 008°41'0 0.0
2017-Oct-20 08:29N 41°12' W 008°41'0 0.0
2017-Oct-20 07:59N 41°12' W 008°41'0 0.0
2017-Oct-20 07:29N 41°12' W 008°41'0 0.0
2017-Oct-20 06:59N 41°12' W 008°41'0 0.0
2017-Oct-20 06:29N 41°12' W 008°41'0 0.0
2017-Oct-20 05:59N 41°12' W 008°41'0 0.0
2017-Oct-20 05:29N 41°12' W 008°41'0 0.0
2017-Oct-20 04:59N 41°12' W 008°41'0 0.0
2017-Oct-20 04:29N 41°12' W 008°41'0 0.0
2017-Oct-20 03:59N 41°12' W 008°41'0 0.0
2017-Oct-20 03:29N 41°12' W 008°41'0 0.0
2017-Oct-20 02:56N 41°12' W 008°41'0 0.0
2017-Oct-20 02:29N 41°12' W 008°41'0 0.0
2017-Oct-20 01:59N 41°12' W 008°41'0 0.0
2017-Oct-20 01:29N 41°12' W 008°41'0 0.0
2017-Oct-20 00:59N 41°12' W 008°41'0 0.0
2017-Oct-20 00:29N 41°12' W 008°41'0 0.0
2017-Oct-19 23:59N 41°12' W 008°41'0 0.0
2017-Oct-19 23:29N 41°12' W 008°41'0 0.0
2017-Oct-19 22:59N 41°12' W 008°41'0 0.1
2017-Oct-19 22:29N 41°12' W 008°41'0 0.0
2017-Oct-19 21:59N 41°12' W 008°41'0 0.0
2017-Oct-19 21:23N 41°12' W 008°41'0 0.0
2017-Oct-19 20:59N 41°12' W 008°41'0 0.0
2017-Oct-19 20:29N 41°12' W 008°41'0 0.0
2017-Oct-19 19:59N 41°12' W 008°41'0 0.0
2017-Oct-19 19:26N 41°12' W 008°41'0 0.0
2017-Oct-19 18:59N 41°12' W 008°41'0 0.0
2017-Oct-19 18:29N 41°12' W 008°41'0 0.0
2017-Oct-19 17:59N 41°12' W 008°41'0 0.0
2017-Oct-19 17:29N 41°12' W 008°41'0 0.0
2017-Oct-19 16:59N 41°12' W 008°41'0 0.0
2017-Oct-19 16:29N 41°12' W 008°41'0 0.0
2017-Oct-19 15:59N 41°12' W 008°41'0 0.7
2017-Oct-19 15:30N 41°11' W 008°41'2 4.5
2017-Oct-19 15:00N 41°09' W 008°42'1 2.4
2017-Oct-19 14:30N 41°09' W 008°44'2 4.3
2017-Oct-19 14:00N 41°08' W 008°46'1 2.0
2017-Oct-19 13:30N 41°07' W 008°48'1 1.5
2017-Oct-19 13:00N 41°07' W 008°48'5 5.6
2017-Oct-19 12:06N 41°02' W 008°49'1 6.2
2017-Oct-19 11:54N 41°01' W 008°50'2 6.2
2017-Oct-19 11:30N 40°58' W 008°51'9612.7
2017-Oct-19 04:00N 39°31' W 009°42'613.2
2017-Oct-19 03:30N 39°25' W 009°46'613.0
2017-Oct-19 03:00N 39°19' W 009°50'612.7
2017-Oct-19 02:30N 39°13' W 009°51'713.1
2017-Oct-19 02:01N 39°07' W 009°52'713.3
2017-Oct-19 01:30N 38°60' W 009°52'713.0
2017-Oct-19 01:00N 38°53' W 009°51'713.6
2017-Oct-19 00:30N 38°47' W 009°51'713.3
2017-Oct-19 00:01N 38°40' W 009°49'612.1
2017-Oct-18 23:31N 38°38' W 009°42'713.0
2017-Oct-18 23:00N 38°37' W 009°34'612.9
2017-Oct-18 22:30N 38°36' W 009°26'612.9
2017-Oct-18 22:00N 38°40' W 009°19'5 9.3
2017-Oct-18 21:30N 38°41' W 009°13'510.0
2017-Oct-18 21:00N 38°42' W 009°07'1 1.3
2017-Oct-18 20:29N 38°43' W 009°07'0 0.0
2017-Oct-18 19:56N 38°43' W 009°07'0 0.0
2017-Oct-18 19:26N 38°43' W 009°07'0 0.0
2017-Oct-18 18:56N 38°43' W 009°07'0 0.0
2017-Oct-18 18:26N 38°43' W 009°07'0 0.0
2017-Oct-18 17:56N 38°43' W 009°07'0 0.0
2017-Oct-18 17:26N 38°43' W 009°07'0 0.0
2017-Oct-18 16:56N 38°43' W 009°07'0 0.0
2017-Oct-18 16:26N 38°43' W 009°07'0 0.0
2017-Oct-18 15:56N 38°43' W 009°07'0 0.0
2017-Oct-18 15:23N 38°43' W 009°07'0 0.0
2017-Oct-18 14:56N 38°43' W 009°07'0 0.0
2017-Oct-18 13:56N 38°43' W 009°07'0 0.0
2017-Oct-18 13:29N 38°43' W 009°07'0 0.0
2017-Oct-18 12:59N 38°43' W 009°07'0 0.0
2017-Oct-18 12:26N 38°43' W 009°07'0 0.0
2017-Oct-18 11:56N 38°43' W 009°07'0 0.0
2017-Oct-18 11:29N 38°43' W 009°07'0 0.0
2017-Oct-18 10:59N 38°43' W 009°07'0 0.0
2017-Oct-18 10:26N 38°43' W 009°07'0 0.0
2017-Oct-18 09:56N 38°43' W 009°07'0 0.0
2017-Oct-18 09:29N 38°43' W 009°07'0 0.0
2017-Oct-18 08:56N 38°43' W 009°07'0 0.0
2017-Oct-18 08:29N 38°43' W 009°07'0 0.0
2017-Oct-18 07:47N 38°43' W 009°07'0 0.0
2017-Oct-18 07:26N 38°43' W 009°07'0 0.0
2017-Oct-18 06:59N 38°43' W 009°07'0 0.0
2017-Oct-18 06:29N 38°43' W 009°07'0 0.0
2017-Oct-18 05:59N 38°43' W 009°07'0 0.0
2017-Oct-18 05:29N 38°43' W 009°07'0 0.0
2017-Oct-18 04:59N 38°43' W 009°07'0 0.0
2017-Oct-18 04:26N 38°43' W 009°07'0 0.0
2017-Oct-18 03:59N 38°43' W 009°07'0 0.0
2017-Oct-18 03:29N 38°43' W 009°07'0 0.0
2017-Oct-18 02:59N 38°43' W 009°07'0 0.0
2017-Oct-18 02:29N 38°43' W 009°07'0 0.0
2017-Oct-18 01:59N 38°43' W 009°07'0 0.0
2017-Oct-18 01:29N 38°43' W 009°07'0 0.0
2017-Oct-18 00:59N 38°43' W 009°07'0 0.0
2017-Oct-18 00:29N 38°43' W 009°07'0 0.0
2017-Oct-17 23:56N 38°43' W 009°07'0 0.0
2017-Oct-17 23:29N 38°43' W 009°07'0 0.0
2017-Oct-17 22:59N 38°43' W 009°07'0 0.0
2017-Oct-17 22:29N 38°43' W 009°07'0 0.0
2017-Oct-17 21:59N 38°43' W 009°07'0 0.0
2017-Oct-17 21:26N 38°43' W 009°07'0 0.0
2017-Oct-17 20:59N 38°43' W 009°07'0 0.0
2017-Oct-17 20:29N 38°43' W 009°07'0 0.0
2017-Oct-17 19:59N 38°43' W 009°07'0 0.0
2017-Oct-17 19:29N 38°43' W 009°07'0 0.0
2017-Oct-17 18:56N 38°43' W 009°07'0 0.0
2017-Oct-17 18:29N 38°43' W 009°07'0 0.0
2017-Oct-17 17:59N 38°43' W 009°07'0 0.0
2017-Oct-17 17:29N 38°43' W 009°07'0 0.0
2017-Oct-17 16:59N 38°43' W 009°07'0 0.0
2017-Oct-17 16:29N 38°43' W 009°07'0 0.0
2017-Oct-17 15:56N 38°43' W 009°07'0 0.0
2017-Oct-17 15:29N 38°43' W 009°07'0 0.0
2017-Oct-17 14:59N 38°43' W 009°07'0 0.0
2017-Oct-17 14:29N 38°43' W 009°07'0 0.0
2017-Oct-17 13:53N 38°43' W 009°07'0 0.0
2017-Oct-17 13:29N 38°43' W 009°07'0 0.0
2017-Oct-17 12:59N 38°43' W 009°07'0 0.0
2017-Oct-17 12:23N 38°43' W 009°07'0 0.0
2017-Oct-17 11:59N 38°43' W 009°07'0 0.0
2017-Oct-17 11:29N 38°43' W 009°07'0 0.0
2017-Oct-17 10:59N 38°43' W 009°07'0 0.0
2017-Oct-17 10:26N 38°43' W 009°07'0 0.0
2017-Oct-17 09:59N 38°43' W 009°07'0 0.0
2017-Oct-17 09:26N 38°43' W 009°07'0 0.0
2017-Oct-17 08:59N 38°43' W 009°07'0 0.0
2017-Oct-17 08:29N 38°43' W 009°07'0 0.0
2017-Oct-17 07:59N 38°43' W 009°07'0 0.0
2017-Oct-17 07:29N 38°43' W 009°07'0 0.0
2017-Oct-17 06:59N 38°43' W 009°07'0 0.0
2017-Oct-17 06:26N 38°43' W 009°07'0 0.0
2017-Oct-17 05:59N 38°43' W 009°07'0 0.0
2017-Oct-17 05:26N 38°43' W 009°07'0 0.0
2017-Oct-17 04:59N 38°43' W 009°07'0 0.0
2017-Oct-17 04:29N 38°43' W 009°07'0 0.0
2017-Oct-17 03:56N 38°43' W 009°07'0 0.0
2017-Oct-17 03:14N 38°43' W 009°07'0 0.0
2017-Oct-17 02:59N 38°43' W 009°07'0 0.0
2017-Oct-17 02:29N 38°43' W 009°07'0 0.0
2017-Oct-17 01:59N 38°43' W 009°07'0 0.0
2017-Oct-17 01:26N 38°43' W 009°07'0 0.0
2017-Oct-17 00:59N 38°43' W 009°07'0 0.0
2017-Oct-17 00:29N 38°43' W 009°07'0 0.0
2017-Oct-16 23:59N 38°43' W 009°07'0 0.0
2017-Oct-16 23:29N 38°43' W 009°07'0 0.0
2017-Oct-16 22:59N 38°43' W 009°07'0 0.0
2017-Oct-16 22:29N 38°43' W 009°07'0 0.0
2017-Oct-16 21:56N 38°43' W 009°07'0 0.0
2017-Oct-16 21:29N 38°43' W 009°07'0 0.0
2017-Oct-16 20:53N 38°43' W 009°07'0 0.0
2017-Oct-16 20:11N 38°43' W 009°07'0 0.1
2017-Oct-16 19:59N 38°43' W 009°07'0 0.7
2017-Oct-16 19:31N 38°43' W 009°07'1 1.4
2017-Oct-16 19:00N 38°42' W 009°07'0 0.1
2017-Oct-16 18:31N 38°42' W 009°07'0 0.0
2017-Oct-16 18:01N 38°42' W 009°07'0 0.0
2017-Oct-16 17:30N 38°42' W 009°07'0 0.0
2017-Oct-16 17:00N 38°42' W 009°07'0 0.0
2017-Oct-16 16:27N 38°42' W 009°07'0 0.0
2017-Oct-16 16:01N 38°42' W 009°07'0 0.0
2017-Oct-16 15:30N 38°42' W 009°07'0 0.0
2017-Oct-16 15:00N 38°42' W 009°07'0 0.4
2017-Oct-16 14:27N 38°42' W 009°07'0 0.1
2017-Oct-16 13:25N 38°42' W 009°07'0 0.0
2017-Oct-16 13:01N 38°42' W 009°07'0 0.0
2017-Oct-16 12:30N 38°42' W 009°07'0 0.0
2017-Oct-16 11:55N 38°42' W 009°07'0 0.0
2017-Oct-16 11:30N 38°42' W 009°07'0 0.0
2017-Oct-16 10:49N 38°42' W 009°07'0 0.0
2017-Oct-16 10:31N 38°42' W 009°07'0 0.0
2017-Oct-16 10:00N 38°42' W 009°07'0 0.0
2017-Oct-16 09:27N 38°42' W 009°07'0 0.1
2017-Oct-16 08:58N 38°42' W 009°07'0 0.0
2017-Oct-16 08:24N 38°42' W 009°07'0 0.1
2017-Oct-16 07:54N 38°42' W 009°07'0 0.1
2017-Oct-16 07:28N 38°42' W 009°07'0 0.1
2017-Oct-16 07:01N 38°42' W 009°07'0 0.1
2017-Oct-16 06:30N 38°42' W 009°07'0 0.1
2017-Oct-16 05:57N 38°42' W 009°07'0 0.0
2017-Oct-16 05:30N 38°42' W 009°07'0 0.0
2017-Oct-16 05:01N 38°42' W 009°07'0 0.0
2017-Oct-16 04:31N 38°42' W 009°07'0 0.0
2017-Oct-16 04:00N 38°42' W 009°07'0 0.0
2017-Oct-16 03:31N 38°42' W 009°07'0 0.0
2017-Oct-16 03:01N 38°42' W 009°07'0 0.0
2017-Oct-16 02:30N 38°42' W 009°07'0 0.3
2017-Oct-16 02:00N 38°42' W 009°07'0 0.1
2017-Oct-16 01:30N 38°42' W 009°07'0 0.0
2017-Oct-16 00:58N 38°42' W 009°07'0 0.0
2017-Oct-16 00:30N 38°42' W 009°07'0 0.0
2017-Oct-15 23:57N 38°42' W 009°07'0 1.0
2017-Oct-15 23:30N 38°43' W 009°07'0 0.8
2017-Oct-15 22:58N 38°43' W 009°07'0 0.0
2017-Oct-15 22:31N 38°43' W 009°07'0 0.0
2017-Oct-15 21:58N 38°43' W 009°07'0 0.0
2017-Oct-15 21:25N 38°43' W 009°07'0 0.0
2017-Oct-15 20:58N 38°43' W 009°07'0 0.0
2017-Oct-15 20:28N 38°43' W 009°07'0 0.0
2017-Oct-15 20:01N 38°43' W 009°07'0 0.0
2017-Oct-15 19:28N 38°43' W 009°07'0 0.0
2017-Oct-15 19:01N 38°43' W 009°07'0 0.0
2017-Oct-15 18:28N 38°43' W 009°07'0 0.0
2017-Oct-15 18:01N 38°43' W 009°07'0 0.0
2017-Oct-15 17:28N 38°43' W 009°07'0 0.0
2017-Oct-15 16:58N 38°43' W 009°07'0 0.0
2017-Oct-15 16:28N 38°43' W 009°07'0 0.0
2017-Oct-15 15:58N 38°43' W 009°07'0 0.0
2017-Oct-15 15:28N 38°43' W 009°07'0 0.0
2017-Oct-15 14:58N 38°43' W 009°07'0 0.0
2017-Oct-15 13:58N 38°43' W 009°07'0 0.0
2017-Oct-15 13:31N 38°43' W 009°07'0 0.0
2017-Oct-15 12:58N 38°43' W 009°07'0 0.0
2017-Oct-15 12:31N 38°43' W 009°07'0 0.0
2017-Oct-15 12:01N 38°43' W 009°07'0 0.0
2017-Oct-15 11:28N 38°43' W 009°07'0 0.0
2017-Oct-15 10:58N 38°43' W 009°07'0 0.0
2017-Oct-15 10:22N 38°43' W 009°07'0 0.0
2017-Oct-15 09:58N 38°43' W 009°07'0 0.0
2017-Oct-15 09:28N 38°43' W 009°07'0 0.0
2017-Oct-15 08:55N 38°43' W 009°07'0 0.0
2017-Oct-15 08:28N 38°43' W 009°07'0 0.0
2017-Oct-15 07:57N 38°43' W 009°07'0 0.0
2017-Oct-15 07:28N 38°43' W 009°07'0 0.0
2017-Oct-15 06:58N 38°43' W 009°07'0 0.0
2017-Oct-15 06:28N 38°43' W 009°07'0 0.0
2017-Oct-15 05:55N 38°43' W 009°07'0 0.0
2017-Oct-15 05:31N 38°43' W 009°07'0 0.0
2017-Oct-15 04:58N 38°43' W 009°07'0 0.0
2017-Oct-15 04:30N 38°43' W 009°07'0 0.0
2017-Oct-15 03:58N 38°43' W 009°07'0 0.0
2017-Oct-15 03:30N 38°43' W 009°07'0 0.0
2017-Oct-15 03:00N 38°43' W 009°07'0 0.0
2017-Oct-15 02:28N 38°43' W 009°07'0 0.0
2017-Oct-15 01:58N 38°43' W 009°07'0 0.0
2017-Oct-15 01:28N 38°43' W 009°07'0 0.0
2017-Oct-15 01:01N 38°43' W 009°07'0 0.0
2017-Oct-15 00:25N 38°43' W 009°07'0 0.0
2017-Oct-14 23:58N 38°43' W 009°07'0 0.0
2017-Oct-14 23:31N 38°43' W 009°07'0 0.0
2017-Oct-14 22:58N 38°43' W 009°07'0 0.0
2017-Oct-14 22:25N 38°43' W 009°07'0 0.0
2017-Oct-14 21:58N 38°43' W 009°07'0 0.0
2017-Oct-14 21:27N 38°43' W 009°07'0 0.0
2017-Oct-14 20:58N 38°43' W 009°07'0 0.0
2017-Oct-14 20:28N 38°43' W 009°07'0 0.0
2017-Oct-14 19:58N 38°43' W 009°07'0 0.0
2017-Oct-14 19:28N 38°43' W 009°07'0 0.0
2017-Oct-14 19:01N 38°43' W 009°07'0 0.0
2017-Oct-14 18:28N 38°43' W 009°07'0 0.0
2017-Oct-14 18:01N 38°43' W 009°07'0 0.0
2017-Oct-14 17:31N 38°43' W 009°07'0 0.0
2017-Oct-14 17:01N 38°43' W 009°07'0 0.0
2017-Oct-14 16:25N 38°43' W 009°07'0 0.0
2017-Oct-14 15:52N 38°43' W 009°07'0 0.0
2017-Oct-14 15:28N 38°43' W 009°07'0 0.0
2017-Oct-14 15:01N 38°43' W 009°07'0 0.0
2017-Oct-14 14:28N 38°43' W 009°07'0 0.0
2017-Oct-14 13:58N 38°43' W 009°07'0 0.9
2017-Oct-14 13:30N 38°43' W 009°07'4 8.9
2017-Oct-14 13:00N 38°41' W 009°12'3 6.3
2017-Oct-14 12:30N 38°41' W 009°16'4 7.3
2017-Oct-14 12:00N 38°39' W 009°20'611.1
2017-Oct-14 11:30N 38°35' W 009°26'612.1
2017-Oct-14 11:00N 38°31' W 009°31'2 3.6
2017-Oct-14 10:28N 38°30' W 009°33'0 0.8
2017-Oct-14 09:58N 38°30' W 009°33'0 0.7
2017-Oct-14 09:28N 38°30' W 009°32'0 0.8
2017-Oct-14 08:58N 38°30' W 009°32'0 0.7
2017-Oct-14 08:28N 38°30' W 009°31'0 0.3
2017-Oct-14 07:58N 38°30' W 009°31'0 0.3
2017-Oct-14 07:28N 38°30' W 009°31'0 0.5
2017-Oct-14 06:58N 38°30' W 009°31'0 0.8
2017-Oct-14 06:28N 38°30' W 009°30'0 0.9
2017-Oct-14 05:58N 38°30' W 009°30'1 1.0
2017-Oct-14 05:28N 38°30' W 009°29'0 1.0
2017-Oct-14 04:58N 38°30' W 009°28'1 1.2
2017-Oct-14 04:28N 38°30' W 009°28'1 1.8
2017-Oct-14 04:00N 38°30' W 009°27'5 9.8
2017-Oct-14 03:30N 38°25' W 009°28'612.0
2017-Oct-14 03:00N 38°19' W 009°29'713.5
2017-Oct-14 02:31N 38°12' W 009°31'713.5
2017-Oct-14 02:00N 38°06' W 009°33'713.6
2017-Oct-14 01:30N 37°59' W 009°34'713.7
2017-Oct-14 01:00N 37°52' W 009°36'714.1
2017-Oct-14 00:30N 37°45' W 009°38'714.0
2017-Oct-14 00:00N 37°38' W 009°39'713.8
2017-Oct-13 23:30N 37°32' W 009°41'713.8
2017-Oct-13 23:00N 37°25' W 009°43'713.7
2017-Oct-13 22:30N 37°18' W 009°45'713.6
2017-Oct-13 22:01N 37°12' W 009°46'713.8
2017-Oct-13 21:30N 37°05' W 009°49'713.7
2017-Oct-13 21:00N 36°58' W 009°51'713.4
2017-Oct-13 20:30N 36°52' W 009°53'713.3
2017-Oct-13 20:00N 36°45' W 009°54'713.4
2017-Oct-13 19:30N 36°39' W 009°56'713.4
2017-Oct-13 19:00N 36°32' W 009°57'713.3
2017-Oct-13 18:30N 36°25' W 009°59'713.3
2017-Oct-13 18:00N 36°19' W 010°01'713.4
2017-Oct-13 17:30N 36°12' W 010°02'713.5
2017-Oct-13 17:00N 36°06' W 010°04'713.5
2017-Oct-13 16:30N 35°59' W 010°06'713.8
2017-Oct-13 16:00N 35°53' W 010°08'713.7
2017-Oct-13 15:29N 35°46' W 010°10'3113.7
2017-Oct-13 13:15N 35°15' W 010°17'313.9
2017-Oct-13 13:00N 35°12' W 010°18'713.8
2017-Oct-13 12:30N 35°05' W 010°20'713.7
2017-Oct-13 12:00N 34°59' W 010°22'713.7
2017-Oct-13 11:30N 34°52' W 010°23'713.8
2017-Oct-13 11:00N 34°45' W 010°25'714.2
2017-Oct-13 10:30N 34°38' W 010°27'714.0
2017-Oct-13 10:00N 34°31' W 010°29'713.8
2017-Oct-13 09:30N 34°25' W 010°30'713.9
2017-Oct-13 09:00N 34°18' W 010°32'713.8
2017-Oct-13 08:30N 34°11' W 010°34'913.7
2017-Oct-13 07:51N 34°02' W 010°36'713.9
2017-Oct-13 07:20N 33°55' W 010°38'514.1
2017-Oct-13 07:00N 33°51' W 010°39'714.1
2017-Oct-13 06:29N 33°44' W 010°41'1014.7
2017-Oct-13 05:49N 33°34' W 010°43'414.4
2017-Oct-13 05:30N 33°30' W 010°44'1114.3
2017-Oct-13 04:46N 33°19' W 010°47'414.4
2017-Oct-13 04:30N 33°15' W 010°48'714.7
2017-Oct-13 04:00N 33°08' W 010°49'814.6
2017-Oct-13 03:27N 33°01' W 010°51'2614.8
2017-Oct-13 01:43N 32°35' W 010°58'3014.8
2017-Oct-12 23:42N 32°06' W 011°05'514.6
2017-Oct-12 23:21N 32°01' W 011°06'515.1
2017-Oct-12 22:59N 31°56' W 011°07'714.6
2017-Oct-12 22:30N 31°49' W 011°09'714.5
2017-Oct-12 22:00N 31°42' W 011°11'714.6
2017-Oct-12 21:30N 31°35' W 011°13'814.5
2017-Oct-12 20:58N 31°27' W 011°15'3913.5
2017-Oct-12 18:06N 30°51' W 011°31'214.2
2017-Oct-12 17:59N 30°50' W 011°32'714.0
2017-Oct-12 17:29N 30°44' W 011°37'713.9
2017-Oct-12 16:59N 30°38' W 011°41'1415.5
2017-Oct-12 16:04N 30°26' W 011°50'119.1
2017-Oct-12 15:59N 30°24' W 011°51'1118.4
2017-Oct-12 15:23N 30°15' W 011°57'614.7
2017-Oct-12 15:00N 30°10' W 012°01'1013.9
2017-Oct-12 14:18N 30°02' W 012°07'413.6
2017-Oct-12 14:00N 29°59' W 012°10'713.7
2017-Oct-12 13:30N 29°53' W 012°14'713.7
2017-Oct-12 13:00N 29°47' W 012°18'713.8
2017-Oct-12 12:31N 29°41' W 012°22'1713.9
2017-Oct-12 11:17N 29°27' W 012°33'413.8
2017-Oct-12 11:00N 29°24' W 012°36'713.7
2017-Oct-12 10:30N 29°18' W 012°40'713.9
2017-Oct-12 10:01N 29°13' W 012°45'714.1
2017-Oct-12 09:30N 29°07' W 012°50'713.2
2017-Oct-12 09:00N 29°01' W 012°52'713.6
2017-Oct-12 08:30N 28°55' W 012°56'714.3
2017-Oct-12 08:00N 28°49' W 013°01'713.7
2017-Oct-12 07:30N 28°43' W 013°05'714.3
2017-Oct-12 07:00N 28°37' W 013°09'714.3
2017-Oct-12 06:31N 28°31' W 013°14'714.3
2017-Oct-12 06:00N 28°25' W 013°18'714.6
2017-Oct-12 05:30N 28°19' W 013°22'714.6
2017-Oct-12 05:00N 28°13' W 013°27'714.4
2017-Oct-12 04:30N 28°07' W 013°31'714.2
2017-Oct-12 04:01N 28°01' W 013°36'713.9
2017-Oct-12 03:30N 27°55' W 013°40'713.7
2017-Oct-12 03:00N 27°49' W 013°44'713.8
2017-Oct-12 02:31N 27°43' W 013°48'713.6
2017-Oct-12 02:00N 27°38' W 013°52'713.7
2017-Oct-12 01:30N 27°32' W 013°56'713.8
2017-Oct-12 01:00N 27°26' W 014°01'713.8
2017-Oct-12 00:30N 27°20' W 014°05'713.6
2017-Oct-12 00:00N 27°14' W 014°09'1513.5
2017-Oct-11 22:53N 27°02' W 014°18'2013.4
2017-Oct-11 21:24N 26°45' W 014°30'2113.3
2017-Oct-11 19:50N 26°28' W 014°43'512.6
2017-Oct-11 19:27N 26°23' W 014°45'613.0
2017-Oct-11 18:59N 26°18' W 014°49'713.0
2017-Oct-11 18:29N 26°13' W 014°53'612.8
2017-Oct-11 18:00N 26°08' W 014°56'712.7
2017-Oct-11 17:29N 26°02' W 015°01'812.6
2017-Oct-11 16:51N 25°55' W 015°05'  

Dump ship's entire track history